Terminal Aerodrome Forecast
Issued by NWS

Home | Current Version | Previous Version | Graphics & Text | Print | Product List | Glossary On
Versions: 1 2 3 4 5 6 7 8 9 10 11 12 13
000
FTUS43 KGRB 191125
TAFCWA
TAF
KCWA 191125Z 1912/2012 26007KT P6SM BKN250
     FM191600 25008G15KT P6SM SCT250
     FM192100 20006KT P6SM SKC
     FM200700 18005KT P6SM SKC WS015/23035KT=

USA.gov is the U.S. government's official web portal to all federal, state and local government web resources and services.